createdAt,value
2022-10-28T00:01:06.295Z,99332.31
2022-10-28T00:03:33.836Z,99331.97
2022-10-28T00:06:09.712Z,99337.25
2022-10-28T00:08:37.273Z,99337.88
2022-10-28T00:11:09.539Z,99338.00
2022-10-28T00:13:37.125Z,99340.38
2022-10-28T00:16:12.487Z,99340.38
2022-10-28T00:18:40.033Z,99330.75
2022-10-28T00:21:16.274Z,99340.09
2022-10-28T00:23:44.035Z,99341.00
2022-10-28T00:26:26.962Z,99337.06
2022-10-28T00:29:02.432Z,99329.94
2022-10-28T00:31:30.615Z,99333.25
2022-10-28T00:33:59.950Z,99329.47
2022-10-28T00:36:29.563Z,99326.56
2022-10-28T00:38:57.534Z,99331.97
2022-10-28T00:41:27.862Z,99329.59
2022-10-28T00:43:58.020Z,99331.88
2022-10-28T00:46:41.810Z,99333.22
2022-10-28T00:49:29.842Z,99332.69
2022-10-28T00:52:06.621Z,99337.25
2022-10-28T00:54:35.376Z,99325.91
2022-10-28T00:57:05.984Z,99328.94
2022-10-28T00:59:37.160Z,99331.16
2022-10-28T01:02:05.492Z,99327.81
2022-10-28T01:04:33.289Z,99330.09
2022-10-28T01:07:02.172Z,99336.34
2022-10-28T01:09:29.656Z,99342.41
2022-10-28T01:12:27.947Z,99335.91
2022-10-28T01:15:20.574Z,99336.22
2022-10-28T01:17:57.788Z,99338.38
2022-10-28T01:20:27.698Z,99331.38
2022-10-28T01:23:22.456Z,99340.22
2022-10-28T01:26:23.920Z,99333.44
2022-10-28T01:29:19.536Z,99336.66
2022-10-28T01:32:08.624Z,99332.03
2022-10-28T01:34:54.035Z,99330.63
2022-10-28T01:37:44.590Z,99343.78
2022-10-28T01:40:21.299Z,99328.88
2022-10-28T01:42:54.799Z,99336.13
2022-10-28T01:45:31.408Z,99334.47
2022-10-28T01:48:04.248Z,99338.44
2022-10-28T01:51:08.980Z,99341.00
2022-10-28T01:53:41.852Z,99334.22
2022-10-28T01:56:16.660Z,99332.00
2022-10-28T01:58:44.788Z,99326.97
2022-10-28T02:01:12.385Z,99337.84
2022-10-28T02:03:39.674Z,99325.00
2022-10-28T02:06:14.495Z,99334.69
2022-10-28T02:09:08.384Z,99338.28
2022-10-28T02:11:41.199Z,99338.50
2022-10-28T02:14:14.353Z,99340.88
2022-10-28T02:16:50.584Z,99345.88
2022-10-28T02:19:47.363Z,99343.38
2022-10-28T02:22:23.508Z,99346.06
2022-10-28T02:24:54.894Z,99351.28
2022-10-28T02:27:38.184Z,99342.31
2022-10-28T02:30:09.651Z,99349.81
2022-10-28T02:32:44.633Z,99353.97
2022-10-28T02:35:20.857Z,99342.31
2022-10-28T02:37:50.647Z,99351.47
2022-10-28T02:40:25.343Z,99343.38
2022-10-28T02:43:00.079Z,99348.00
2022-10-28T02:45:35.807Z,99351.38
2022-10-28T02:48:08.403Z,99345.88
2022-10-28T02:50:39.829Z,99355.47
2022-10-28T02:53:35.485Z,99347.03
2022-10-28T02:56:06.944Z,99352.16
2022-10-28T02:58:41.165Z,99356.47
2022-10-28T03:01:08.422Z,99346.09
2022-10-28T03:03:35.516Z,99362.06
2022-10-28T03:06:02.520Z,99357.66
2022-10-28T03:08:29.477Z,99350.19
2022-10-28T03:10:56.433Z,99353.19
2022-10-28T03:13:23.577Z,99362.31
2022-10-28T03:15:50.555Z,99358.06
2022-10-28T03:18:17.473Z,99356.53
2022-10-28T03:20:44.359Z,99356.31
2022-10-28T03:23:12.194Z,99360.53
2022-10-28T03:25:39.526Z,99360.97
2022-10-28T03:28:06.706Z,99362.88
2022-10-28T03:30:33.594Z,99360.41
2022-10-28T03:33:01.232Z,99370.19
2022-10-28T03:35:28.211Z,99363.97
2022-10-28T03:37:55.666Z,99363.47
2022-10-28T03:40:22.944Z,99368.38
2022-10-28T03:42:50.123Z,99380.59
2022-10-28T03:45:17.282Z,99374.91
2022-10-28T03:47:45.414Z,99376.72
2022-10-28T03:50:12.389Z,99375.19
2022-10-28T03:52:39.736Z,99377.88
2022-10-28T03:55:08.805Z,99371.06
2022-10-28T03:57:36.134Z,99378.47
2022-10-28T04:00:05.212Z,99369.03
2022-10-28T04:02:38.875Z,99378.16
2022-10-28T04:05:06.438Z,99370.75
2022-10-28T04:07:33.586Z,99373.06
2022-10-28T04:10:01.178Z,99378.03
2022-10-28T04:12:28.373Z,99381.47
2022-10-28T04:14:55.610Z,99384.06
2022-10-28T04:17:22.692Z,99379.38
2022-10-28T04:19:49.980Z,99379.88
2022-10-28T04:22:16.887Z,99384.63
2022-10-28T04:24:43.797Z,99390.00
2022-10-28T04:27:10.711Z,99381.44
2022-10-28T04:29:37.623Z,99394.22
2022-10-28T04:32:04.700Z,99387.31
2022-10-28T04:34:32.083Z,99385.38
2022-10-28T04:36:59.641Z,99385.28
2022-10-28T04:39:26.754Z,99390.84
2022-10-28T04:41:54.634Z,99382.13
2022-10-28T04:44:21.529Z,99382.69
2022-10-28T04:46:49.071Z,99385.47
2022-10-28T04:49:16.412Z,99387.41
2022-10-28T04:51:43.651Z,99386.63
2022-10-28T04:54:10.712Z,99385.19
2022-10-28T04:56:37.677Z,99391.63
2022-10-28T04:59:04.725Z,99388.66
2022-10-28T05:01:31.825Z,99388.25
2022-10-28T05:03:59.752Z,99388.06
2022-10-28T05:06:26.613Z,99383.63
2022-10-28T05:08:53.866Z,99392.28
2022-10-28T05:11:21.253Z,99398.22
2022-10-28T05:13:48.507Z,99397.56
2022-10-28T05:16:15.471Z,99394.56
2022-10-28T05:21:15.500Z,99396.72
2022-10-28T05:23:44.377Z,99396.31
2022-10-28T05:26:11.783Z,99404.22
2022-10-28T05:28:38.671Z,99403.22
2022-10-28T05:31:06.258Z,99400.75
2022-10-28T05:33:36.007Z,99400.66
2022-10-28T05:36:03.257Z,99400.19
2022-10-28T05:38:30.505Z,99407.66
2022-10-28T05:40:57.757Z,99411.41
2022-10-28T05:43:24.645Z,99408.13
2022-10-28T05:45:56.601Z,99407.56
2022-10-28T05:48:24.418Z,99403.03
2022-10-28T05:50:51.383Z,99413.88
2022-10-28T05:53:18.813Z,99413.78
2022-10-28T05:55:47.774Z,99417.00
2022-10-28T05:58:15.863Z,99421.16
2022-10-28T06:00:43.295Z,99418.81
2022-10-28T06:03:12.274Z,99422.16
2022-10-28T06:05:43.860Z,99415.50
2022-10-28T06:08:12.934Z,99430.63
2022-10-28T06:10:40.714Z,99424.91
2022-10-28T06:13:07.853Z,99428.25
2022-10-28T06:15:34.819Z,99427.97
2022-10-28T06:18:02.286Z,99435.28
2022-10-28T06:20:29.443Z,99434.00
2022-10-28T06:22:56.623Z,99438.31
2022-10-28T06:25:25.034Z,99425.81
2022-10-28T06:27:54.833Z,99425.50
2022-10-28T06:30:23.685Z,99440.28
2022-10-28T06:32:50.548Z,99438.94
2022-10-28T06:35:18.904Z,99438.22
2022-10-28T06:37:45.829Z,99441.69
2022-10-28T06:40:13.104Z,99431.44
2022-10-28T06:42:40.709Z,99436.19
2022-10-28T06:45:08.308Z,99439.88
2022-10-28T06:47:40.577Z,99435.00
2022-10-28T06:50:09.390Z,99437.53
2022-10-28T06:52:36.590Z,99433.81
2022-10-28T06:55:04.107Z,99440.81
2022-10-28T06:57:32.156Z,99432.13
2022-10-28T06:59:59.721Z,99434.94
2022-10-28T07:02:26.928Z,99434.38
2022-10-28T07:04:54.636Z,99442.78
2022-10-28T07:07:21.580Z,99439.28
2022-10-28T07:09:49.265Z,99445.78
2022-10-28T07:12:19.829Z,99441.63
2022-10-28T07:14:46.986Z,99439.81
2022-10-28T07:17:13.868Z,99447.66
2022-10-28T07:19:41.942Z,99444.53
2022-10-28T07:22:08.863Z,99436.22
2022-10-28T07:24:35.944Z,99441.03
2022-10-28T07:27:02.934Z,99442.53
2022-10-28T07:29:29.886Z,99449.69
2022-10-28T07:31:57.566Z,99443.25
2022-10-28T07:34:27.147Z,99441.44
2022-10-28T07:36:55.746Z,99434.31
2022-10-28T07:39:23.092Z,99440.03
2022-10-28T07:41:50.172Z,99440.81
2022-10-28T07:44:17.309Z,99439.22
2022-10-28T07:46:44.359Z,99430.47
2022-10-28T07:49:11.272Z,99431.22
2022-10-28T07:51:38.204Z,99429.50
2022-10-28T07:54:05.250Z,99433.06
2022-10-28T07:56:32.275Z,99425.75
2022-10-28T07:59:00.752Z,99425.41
2022-10-28T08:01:27.840Z,99421.09
2022-10-28T08:03:54.960Z,99415.84
2022-10-28T08:06:22.338Z,99431.28
2022-10-28T08:08:54.768Z,99417.63
2022-10-28T08:11:23.839Z,99418.50
2022-10-28T08:13:55.364Z,99419.66
2022-10-28T08:16:22.829Z,99423.78
2022-10-28T08:18:49.882Z,99420.81
2022-10-28T08:21:17.242Z,99405.91
2022-10-28T08:23:46.748Z,99406.13
2022-10-28T08:26:16.144Z,99416.00
2022-10-28T08:28:43.423Z,99412.72
2022-10-28T08:31:12.580Z,99409.06
2022-10-28T08:33:42.714Z,99405.31
2022-10-28T08:36:12.189Z,99412.09
2022-10-28T08:38:44.301Z,99402.69
2022-10-28T08:41:30.189Z,99408.22
2022-10-28T08:44:17.501Z,99403.41
2022-10-28T08:47:03.088Z,99406.75
2022-10-28T08:49:33.610Z,99395.28
2022-10-28T08:52:14.139Z,99398.22
2022-10-28T08:54:50.629Z,99406.31
2022-10-28T08:57:26.040Z,99403.06
2022-10-28T08:59:55.046Z,99395.22
2022-10-28T09:02:25.349Z,99394.38
2022-10-28T09:05:06.584Z,99397.00
2022-10-28T09:07:37.306Z,99378.94
2022-10-28T09:10:06.000Z,99392.09
2022-10-28T09:12:49.353Z,99386.97
2022-10-28T09:15:38.272Z,99380.94
2022-10-28T09:18:06.028Z,99381.53
2022-10-28T09:20:54.750Z,99382.94
2022-10-28T09:23:45.658Z,99378.81
2022-10-28T09:26:42.596Z,99372.91
2022-10-28T09:29:19.006Z,99372.72
2022-10-28T09:31:50.331Z,99372.97
2022-10-28T09:34:29.903Z,99362.19
2022-10-28T09:37:20.101Z,99362.19
2022-10-28T09:39:51.054Z,99355.72
2022-10-28T09:42:25.602Z,99357.56
2022-10-28T09:45:02.649Z,99342.03
2022-10-28T09:47:38.584Z,99345.38
2022-10-28T09:50:15.927Z,99340.44
2022-10-28T09:53:21.815Z,99339.28
2022-10-28T09:55:51.572Z,99337.97
2022-10-28T09:58:19.295Z,99331.75
2022-10-28T10:00:46.771Z,99336.09
2022-10-28T10:03:17.263Z,99332.41
2022-10-28T10:05:49.878Z,99324.41
2022-10-28T10:08:20.195Z,99326.09
2022-10-28T10:11:00.940Z,99319.84
2022-10-28T10:13:33.254Z,99318.19
2022-10-28T10:16:05.958Z,99316.16
2022-10-28T10:18:34.324Z,99315.03
2022-10-28T10:21:01.683Z,99316.34
2022-10-28T10:23:46.515Z,99302.81
2022-10-28T10:26:16.353Z,99305.22
2022-10-28T10:28:49.576Z,99302.28
2022-10-28T10:31:20.411Z,99302.88
2022-10-28T10:33:58.903Z,99295.25
2022-10-28T10:36:29.112Z,99301.84
2022-10-28T10:38:56.897Z,99294.38
2022-10-28T10:41:36.015Z,99294.97
2022-10-28T10:44:22.888Z,99279.44
2022-10-28T10:47:06.502Z,99285.09
2022-10-28T10:49:37.201Z,99282.16
2022-10-28T10:52:17.585Z,99280.63
2022-10-28T10:55:00.055Z,99266.09
2022-10-28T10:57:27.814Z,99268.59
2022-10-28T10:59:56.752Z,99268.41
2022-10-28T11:02:37.185Z,99263.78
2022-10-28T11:05:07.772Z,99262.06
2022-10-28T11:07:36.614Z,99258.63
2022-10-28T11:10:05.509Z,99260.84
2022-10-28T11:12:39.047Z,99243.50
2022-10-28T11:15:09.502Z,99245.88
2022-10-28T11:17:36.408Z,99246.16
2022-10-28T11:20:44.413Z,99246.72
2022-10-28T11:23:18.276Z,99231.97
2022-10-28T11:25:50.810Z,99231.75
2022-10-28T11:28:39.276Z,99228.25
2022-10-28T11:31:25.051Z,99225.31
2022-10-28T11:34:24.191Z,99221.78
2022-10-28T11:37:39.336Z,99218.66
2022-10-28T11:40:18.247Z,99211.50
2022-10-28T11:43:25.721Z,99207.91
2022-10-28T11:46:17.399Z,99205.31
2022-10-28T11:48:52.814Z,99212.16
2022-10-28T11:51:41.311Z,99201.72
2022-10-28T11:54:29.615Z,99201.25
2022-10-28T11:57:07.546Z,99191.28
2022-10-28T11:59:52.910Z,99192.13
2022-10-28T12:02:52.324Z,99182.75
2022-10-28T12:05:34.327Z,99174.88
2022-10-28T12:08:26.779Z,99175.00
2022-10-28T12:11:39.558Z,99171.31
2022-10-28T12:14:41.460Z,99169.53
2022-10-28T12:17:17.524Z,99163.06
2022-10-28T12:20:14.612Z,99155.72
2022-10-28T12:22:54.908Z,99144.59
2022-10-28T12:25:26.710Z,99153.38
2022-10-28T12:28:03.195Z,99154.22
2022-10-28T12:30:40.415Z,99146.88
2022-10-28T12:33:15.752Z,99147.63
2022-10-28T12:35:51.511Z,99136.38
2022-10-28T12:38:42.103Z,99133.25
2022-10-28T12:44:20.276Z,99133.19
2022-10-28T12:47:14.948Z,99128.13
2022-10-28T12:50:08.955Z,99123.19
2022-10-28T12:52:44.393Z,99120.31
2022-10-28T12:55:17.894Z,99120.91
2022-10-28T12:57:49.873Z,99115.06
2022-10-28T13:00:23.488Z,99119.75
2022-10-28T13:03:05.508Z,99124.53
2022-10-28T13:05:46.711Z,99115.56
2022-10-28T13:08:46.196Z,99116.59
2022-10-28T13:11:15.990Z,99113.38
2022-10-28T13:13:45.677Z,99112.69
2022-10-28T13:16:24.401Z,99107.66
2022-10-28T13:19:00.013Z,99100.28
2022-10-28T13:21:59.041Z,99094.94
2022-10-28T13:24:42.928Z,99096.13
2022-10-28T13:27:13.743Z,99096.72
2022-10-28T13:29:43.538Z,99095.28
2022-10-28T13:32:35.757Z,99096.63
2022-10-28T13:35:23.175Z,99088.97
2022-10-28T13:37:53.063Z,99087.97
2022-10-28T13:40:32.282Z,99084.47
2022-10-28T13:43:01.090Z,99081.78
2022-10-28T13:45:48.695Z,99077.81
2022-10-28T13:48:41.589Z,99082.88
2022-10-28T13:51:11.706Z,99083.81
2022-10-28T13:53:45.994Z,99082.28
2022-10-28T13:56:30.534Z,99079.97
2022-10-28T13:59:02.571Z,99085.06
2022-10-28T14:01:38.876Z,99079.00
2022-10-28T14:04:19.729Z,99081.13
2022-10-28T14:06:48.175Z,99081.00
2022-10-28T14:09:29.448Z,99083.78
2022-10-28T14:12:17.968Z,99074.81
2022-10-28T14:14:58.470Z,99072.84
2022-10-28T14:17:36.122Z,99081.88
2022-10-28T14:20:06.273Z,99077.97
2022-10-28T14:22:37.020Z,99082.47
2022-10-28T14:25:41.937Z,99078.94
2022-10-28T14:28:27.421Z,99077.72
2022-10-28T14:31:09.684Z,99074.84
2022-10-28T14:33:42.676Z,99077.41
2022-10-28T14:36:18.783Z,99075.44
2022-10-28T14:39:04.322Z,99079.56
2022-10-28T14:41:34.987Z,99079.56
2022-10-28T14:44:17.000Z,99073.34
2022-10-28T14:46:56.239Z,99083.25
2022-10-28T14:49:45.569Z,99075.28
2022-10-28T14:52:20.025Z,99073.09
2022-10-28T14:54:51.684Z,99077.69
2022-10-28T14:57:22.934Z,99074.25
2022-10-28T14:59:51.803Z,99081.97
2022-10-28T15:02:22.763Z,99074.38
2022-10-28T15:05:03.256Z,99084.44
2022-10-28T15:07:35.621Z,99080.13
2022-10-28T15:10:28.791Z,99067.19
2022-10-28T15:12:58.131Z,99081.09
2022-10-28T15:15:29.774Z,99073.78
2022-10-28T15:17:57.987Z,99077.53
2022-10-28T15:20:32.513Z,99072.94
2022-10-28T15:23:20.192Z,99078.09
2022-10-28T15:26:05.479Z,99065.78
2022-10-28T15:28:32.890Z,99069.50
2022-10-28T15:30:59.811Z,99073.94
2022-10-28T15:33:30.898Z,99076.47
2022-10-28T15:36:17.693Z,99065.13
2022-10-28T15:38:47.285Z,99075.06
2022-10-28T15:41:23.841Z,99071.91
2022-10-28T15:43:56.301Z,99074.81
2022-10-28T15:46:24.900Z,99077.81
2022-10-28T15:48:53.446Z,99081.06
2022-10-28T15:51:21.702Z,99072.44
2022-10-28T15:53:55.890Z,99074.44
2022-10-28T15:56:27.352Z,99084.44
2022-10-28T15:59:07.349Z,99085.84
2022-10-28T16:01:41.189Z,99088.56
2022-10-28T16:04:23.242Z,99098.84
2022-10-28T16:06:55.939Z,99093.91
2022-10-28T16:09:35.726Z,99091.00
2022-10-28T16:12:13.080Z,99101.91
2022-10-28T16:14:42.791Z,99103.78
2022-10-28T16:17:19.116Z,99102.38
2022-10-28T16:20:16.998Z,99108.13
2022-10-28T16:22:46.023Z,99113.72
2022-10-28T16:25:15.073Z,99107.53
2022-10-28T16:27:42.282Z,99105.66
2022-10-28T16:30:10.562Z,99109.00
2022-10-28T16:32:39.302Z,99111.16
2022-10-28T16:35:15.274Z,99116.22
2022-10-28T16:37:45.274Z,99115.38
2022-10-28T16:40:37.608Z,99117.59
2022-10-28T16:43:01.805Z,99118.34
2022-10-28T16:45:29.130Z,99116.31
2022-10-28T16:47:56.682Z,99115.88
2022-10-28T16:50:25.041Z,99117.97
2022-10-28T16:52:54.425Z,99120.25
2022-10-28T16:55:21.431Z,99118.09
2022-10-28T16:57:48.369Z,99125.00
2022-10-28T17:00:16.387Z,99122.03
2022-10-28T17:02:43.360Z,99124.69
2022-10-28T17:05:20.022Z,99123.44
2022-10-28T17:07:47.316Z,99131.78
2022-10-28T17:10:15.243Z,99126.13
2022-10-28T17:12:42.785Z,99133.63
2022-10-28T17:15:10.816Z,99138.53
2022-10-28T17:17:38.255Z,99137.72
2022-10-28T17:20:06.074Z,99151.91
2022-10-28T17:22:33.703Z,99137.47
2022-10-28T17:25:00.679Z,99147.75
2022-10-28T17:27:28.085Z,99149.78
2022-10-28T17:29:55.352Z,99148.94
2022-10-28T17:32:22.374Z,99155.81
2022-10-28T17:34:50.155Z,99159.56
2022-10-28T17:37:17.170Z,99150.69
2022-10-28T17:39:44.878Z,99159.13
2022-10-28T17:42:13.691Z,99157.88
2022-10-28T17:44:44.151Z,99156.59
2022-10-28T17:47:12.394Z,99159.88
2022-10-28T17:49:39.396Z,99163.88
2022-10-28T17:52:06.421Z,99162.44
2022-10-28T17:54:34.073Z,99173.63
2022-10-28T17:57:00.993Z,99163.44
2022-10-28T17:59:28.416Z,99167.59
2022-10-28T18:01:55.556Z,99180.03
2022-10-28T18:04:26.421Z,99179.31
2022-10-28T18:06:55.331Z,99172.00
2022-10-28T18:09:23.055Z,99178.56
2022-10-28T18:11:50.650Z,99173.84
2022-10-28T18:14:18.011Z,99178.56
2022-10-28T18:16:46.112Z,99187.28
2022-10-28T18:19:13.881Z,99187.81
2022-10-28T18:21:41.140Z,99182.94
2022-10-28T18:24:08.559Z,99191.63
2022-10-28T18:26:37.441Z,99186.03
2022-10-28T18:29:06.395Z,99180.44
2022-10-28T18:31:34.179Z,99187.41
2022-10-28T18:34:02.794Z,99185.91
2022-10-28T18:36:34.560Z,99184.59
2022-10-28T18:39:04.524Z,99182.97
2022-10-28T18:41:34.703Z,99187.47
2022-10-28T18:44:09.891Z,99181.88
2022-10-28T18:46:37.861Z,99180.53
2022-10-28T18:49:05.612Z,99193.31
2022-10-28T18:51:35.608Z,99197.00
2022-10-28T18:54:02.680Z,99191.34
2022-10-28T18:56:30.518Z,99190.34
2022-10-28T18:58:58.679Z,99201.63
2022-10-28T19:01:28.025Z,99201.63
2022-10-28T19:04:00.370Z,99199.94
2022-10-28T19:06:32.904Z,99208.44
2022-10-28T19:09:02.397Z,99209.47
2022-10-28T19:11:31.395Z,99200.72
2022-10-28T19:14:06.447Z,99201.44
2022-10-28T19:16:34.553Z,99214.66
2022-10-28T19:19:03.169Z,99205.75
2022-10-28T19:21:30.834Z,99205.16
2022-10-28T19:23:57.781Z,99210.84
2022-10-28T19:26:25.135Z,99211.41
2022-10-28T19:28:52.362Z,99213.88
2022-10-28T19:31:22.202Z,99212.44
2022-10-28T19:33:49.322Z,99222.78
2022-10-28T19:36:21.478Z,99224.19
2022-10-28T19:38:50.033Z,99230.22
2022-10-28T19:41:20.146Z,99237.50
2022-10-28T19:43:47.706Z,99239.59
2022-10-28T19:46:19.970Z,99241.44
2022-10-28T19:48:49.384Z,99242.72
2022-10-28T19:51:19.868Z,99243.91
2022-10-28T19:53:51.616Z,99246.75
2022-10-28T19:56:20.101Z,99246.03
2022-10-28T19:58:49.711Z,99255.03
2022-10-28T20:01:17.953Z,99249.75
2022-10-28T20:03:49.217Z,99251.84
2022-10-28T20:06:18.055Z,99260.09
2022-10-28T20:08:47.166Z,99256.78
2022-10-28T20:11:18.914Z,99258.13
2022-10-28T20:13:56.303Z,99261.31
2022-10-28T20:16:25.007Z,99261.97
2022-10-28T20:18:53.195Z,99264.28
2022-10-28T20:21:22.519Z,99262.09
2022-10-28T20:23:53.747Z,99260.72
2022-10-28T20:26:28.766Z,99267.38
2022-10-28T20:28:57.114Z,99256.31
2022-10-28T20:31:26.689Z,99260.22
2022-10-28T20:34:00.895Z,99255.41
2022-10-28T20:36:32.529Z,99257.38
2022-10-28T20:39:03.142Z,99271.41
2022-10-28T20:41:32.645Z,99274.88
2022-10-28T20:44:00.344Z,99279.53
2022-10-28T20:46:27.800Z,99271.41
2022-10-28T20:48:56.542Z,99278.75
2022-10-28T20:51:26.341Z,99278.63
2022-10-28T20:53:53.562Z,99283.97
2022-10-28T20:56:24.119Z,99277.47
2022-10-28T20:58:52.495Z,99275.50
2022-10-28T21:01:22.610Z,99276.81
2022-10-28T21:03:53.833Z,99277.91
2022-10-28T21:06:21.033Z,99278.50
2022-10-28T21:08:48.401Z,99280.59
2022-10-28T21:11:17.494Z,99279.59
2022-10-28T21:13:49.326Z,99275.19
2022-10-28T21:16:16.457Z,99276.03
2022-10-28T21:18:43.447Z,99276.03
2022-10-28T21:21:11.864Z,99275.06
2022-10-28T21:23:39.114Z,99270.63
2022-10-28T21:26:08.327Z,99271.63
2022-10-28T21:28:36.367Z,99265.59
2022-10-28T21:31:06.616Z,99272.84
2022-10-28T21:33:36.066Z,99267.91
2022-10-28T21:36:06.803Z,99270.13
2022-10-28T21:38:35.131Z,99269.59
2022-10-28T21:41:03.793Z,99268.13
2022-10-28T21:43:34.761Z,99273.16
2022-10-28T21:46:06.043Z,99261.31
2022-10-28T21:48:35.645Z,99269.78
2022-10-28T21:51:08.494Z,99266.81
2022-10-28T21:53:39.699Z,99278.22
2022-10-28T21:56:17.571Z,99271.44
2022-10-28T21:58:47.873Z,99277.41
2022-10-28T22:01:23.749Z,99267.47
2022-10-28T22:03:54.687Z,99272.56
2022-10-28T22:06:22.309Z,99277.25
2022-10-28T22:08:49.237Z,99283.84
2022-10-28T22:11:18.905Z,99286.13
2022-10-28T22:13:46.423Z,99286.00
2022-10-28T22:16:16.290Z,99280.50
2022-10-28T22:18:44.654Z,99285.16
2022-10-28T22:21:17.352Z,99284.53
2022-10-28T22:23:44.695Z,99283.75
2022-10-28T22:26:14.447Z,99290.78
2022-10-28T22:28:41.666Z,99284.72
2022-10-28T22:31:11.315Z,99282.78
2022-10-28T22:33:38.998Z,99287.22
2022-10-28T22:36:11.454Z,99281.03
2022-10-28T22:38:38.971Z,99279.56
2022-10-28T22:41:12.507Z,99289.72
2022-10-28T22:43:40.644Z,99282.56
2022-10-28T22:46:07.889Z,99287.66
2022-10-28T22:48:34.913Z,99288.75
2022-10-28T22:51:02.372Z,99286.91
2022-10-28T22:53:29.484Z,99288.59
2022-10-28T22:55:57.331Z,99278.72
2022-10-28T22:58:26.436Z,99283.78
2022-10-28T23:00:53.695Z,99276.13
2022-10-28T23:03:20.641Z,99277.44
2022-10-28T23:05:47.561Z,99278.84
2022-10-28T23:08:17.069Z,99283.47
2022-10-28T23:10:44.049Z,99283.06
2022-10-28T23:13:12.910Z,99274.84
2022-10-28T23:15:40.366Z,99275.72
2022-10-28T23:18:07.296Z,99280.47
2022-10-28T23:20:36.051Z,99275.59
2022-10-28T23:23:03.743Z,99272.16
2022-10-28T23:25:31.003Z,99278.31
2022-10-28T23:27:58.205Z,99270.78
2022-10-28T23:30:25.665Z,99272.81
2022-10-28T23:32:52.616Z,99275.06
2022-10-28T23:35:19.757Z,99274.13
2022-10-28T23:37:47.267Z,99284.25
2022-10-28T23:40:14.732Z,99283.34
2022-10-28T23:42:41.758Z,99282.84
2022-10-28T23:45:10.142Z,99280.84
2022-10-28T23:47:37.033Z,99268.47
2022-10-28T23:50:04.568Z,99266.22
2022-10-28T23:52:32.288Z,99275.47
2022-10-28T23:54:59.554Z,99272.25
2022-10-28T23:57:26.521Z,99270.22
2022-10-28T23:59:54.441Z,99268.47
